sensor_id;sensor_type;location;lat;lon;timestamp;pressure;altitude;pressure_sealevel;temperature;humidity
5574;BME280;2563;52.242;7.956;2023-07-13T00:00:20;102428.53;;;15.15;100.00
5574;BME280;2563;52.242;7.956;2023-07-13T00:02:47;102432.00;;;15.16;100.00
5574;BME280;2563;52.242;7.956;2023-07-13T00:05:12;102439.88;;;15.09;100.00
5574;BME280;2563;52.242;7.956;2023-07-13T00:07:38;102441.63;;;15.07;100.00
5574;BME280;2563;52.242;7.956;2023-07-13T00:10:04;102442.53;;;15.03;100.00
5574;BME280;2563;52.242;7.956;2023-07-13T00:12:35;102452.09;;;15.00;100.00
5574;BME280;2563;52.242;7.956;2023-07-13T00:15:09;102456.47;;;14.93;100.00
5574;BME280;2563;52.242;7.956;2023-07-13T00:17:36;102467.75;;;14.92;100.00
5574;BME280;2563;52.242;7.956;2023-07-13T00:20:04;102466.84;;;14.93;100.00
5574;BME280;2563;52.242;7.956;2023-07-13T00:22:30;102470.34;;;14.92;100.00
5574;BME280;2563;52.242;7.956;2023-07-13T00:24:55;102482.41;;;14.93;100.00
5574;BME280;2563;52.242;7.956;2023-07-13T00:27:21;102490.25;;;14.90;100.00
5574;BME280;2563;52.242;7.956;2023-07-13T00:29:47;102479.03;;;14.88;100.00
5574;BME280;2563;52.242;7.956;2023-07-13T00:32:12;102487.69;;;14.85;100.00
5574;BME280;2563;52.242;7.956;2023-07-13T00:34:38;102494.63;;;14.82;100.00
5574;BME280;2563;52.242;7.956;2023-07-13T00:37:05;102492.94;;;14.81;100.00
5574;BME280;2563;52.242;7.956;2023-07-13T00:39:34;102497.31;;;14.76;100.00
5574;BME280;2563;52.242;7.956;2023-07-13T00:42:00;102491.28;;;14.74;100.00
5574;BME280;2563;52.242;7.956;2023-07-13T00:44:26;102481.78;;;14.71;100.00
5574;BME280;2563;52.242;7.956;2023-07-13T00:46:51;102473.19;;;14.67;100.00
5574;BME280;2563;52.242;7.956;2023-07-13T00:49:19;102476.66;;;14.66;100.00
5574;BME280;2563;52.242;7.956;2023-07-13T00:51:55;102474.97;;;14.64;100.00
5574;BME280;2563;52.242;7.956;2023-07-13T00:54:29;102475.88;;;14.58;100.00
5574;BME280;2563;52.242;7.956;2023-07-13T00:56:59;102468.13;;;14.52;100.00
5574;BME280;2563;52.242;7.956;2023-07-13T00:59:26;102471.63;;;14.48;100.00
5574;BME280;2563;52.242;7.956;2023-07-13T01:01:51;102475.06;;;14.50;100.00
5574;BME280;2563;52.242;7.956;2023-07-13T01:04:17;102463.03;;;14.44;100.00
5574;BME280;2563;52.242;7.956;2023-07-13T01:06:43;102461.28;;;14.43;100.00
5574;BME280;2563;52.242;7.956;2023-07-13T01:09:11;102468.25;;;14.41;100.00
5574;BME280;2563;52.242;7.956;2023-07-13T01:11:37;102464.78;;;14.41;100.00
5574;BME280;2563;52.242;7.956;2023-07-13T01:14:03;102474.31;;;14.36;100.00
5574;BME280;2563;52.242;7.956;2023-07-13T01:16:32;102476.09;;;14.31;100.00
5574;BME280;2563;52.242;7.956;2023-07-13T01:18:58;102477.81;;;14.32;100.00
5574;BME280;2563;52.242;7.956;2023-07-13T01:21:25;102483.06;;;14.25;100.00
5574;BME280;2563;52.242;7.956;2023-07-13T01:23:51;102482.25;;;14.20;100.00
5574;BME280;2563;52.242;7.956;2023-07-13T01:26:16;102490.81;;;14.27;100.00
5574;BME280;2563;52.242;7.956;2023-07-13T01:28:42;102484.78;;;14.23;100.00
5574;BME280;2563;52.242;7.956;2023-07-13T01:31:09;102489.94;;;14.28;100.00
5574;BME280;2563;52.242;7.956;2023-07-13T01:33:37;102485.66;;;14.24;100.00
5574;BME280;2563;52.242;7.956;2023-07-13T01:36:05;102503.84;;;14.16;100.00
5574;BME280;2563;52.242;7.956;2023-07-13T01:38:33;102509.03;;;14.16;100.00
5574;BME280;2563;52.242;7.956;2023-07-13T01:40:59;102514.22;;;14.16;100.00
5574;BME280;2563;52.242;7.956;2023-07-13T01:43:24;102522.88;;;14.12;100.00
5574;BME280;2563;52.242;7.956;2023-07-13T01:45:50;102539.28;;;14.10;100.00
5574;BME280;2563;52.242;7.956;2023-07-13T01:48:15;102546.19;;;14.08;100.00
5574;BME280;2563;52.242;7.956;2023-07-13T01:50:41;102550.53;;;14.07;100.00
5574;BME280;2563;52.242;7.956;2023-07-13T01:53:07;102563.50;;;14.02;100.00
5574;BME280;2563;52.242;7.956;2023-07-13T01:55:33;102569.59;;;13.97;100.00
5574;BME280;2563;52.242;7.956;2023-07-13T01:57:58;102579.91;;;14.00;100.00
5574;BME280;2563;52.242;7.956;2023-07-13T02:00:24;102589.44;;;13.96;100.00
5574;BME280;2563;52.242;7.956;2023-07-13T02:02:50;102604.97;;;13.95;100.00
5574;BME280;2563;52.242;7.956;2023-07-13T02:05:15;102613.59;;;13.97;100.00
5574;BME280;2563;52.242;7.956;2023-07-13T02:07:41;102623.97;;;13.97;100.00
5574;BME280;2563;52.242;7.956;2023-07-13T02:10:08;102630.84;;;13.98;100.00
5574;BME280;2563;52.242;7.956;2023-07-13T02:12:35;102646.41;;;13.99;100.00
5574;BME280;2563;52.242;7.956;2023-07-13T02:15:01;102661.94;;;13.98;100.00
5574;BME280;2563;52.242;7.956;2023-07-13T02:17:26;102680.06;;;13.98;100.00
5574;BME280;2563;52.242;7.956;2023-07-13T02:19:52;102668.00;;;13.97;100.00
5574;BME280;2563;52.242;7.956;2023-07-13T02:22:17;102686.97;;;13.99;100.00
5574;BME280;2563;52.242;7.956;2023-07-13T02:24:43;102693.84;;;14.04;100.00
5574;BME280;2563;52.242;7.956;2023-07-13T02:27:08;102704.22;;;14.06;100.00
5574;BME280;2563;52.242;7.956;2023-07-13T02:29:34;102713.66;;;14.12;100.00
5574;BME280;2563;52.242;7.956;2023-07-13T02:31:59;102730.06;;;14.15;100.00
5574;BME280;2563;52.242;7.956;2023-07-13T02:34:24;102741.31;;;14.13;100.00
5574;BME280;2563;52.242;7.956;2023-07-13T02:36:50;102749.09;;;14.08;100.00
5574;BME280;2563;52.242;7.956;2023-07-13T02:39:15;102762.91;;;14.04;100.00
5574;BME280;2563;52.242;7.956;2023-07-13T02:41:41;102775.00;;;14.02;100.00
5574;BME280;2563;52.242;7.956;2023-07-13T02:44:06;102791.41;;;14.04;100.00
5574;BME280;2563;52.242;7.956;2023-07-13T02:46:35;102801.78;;;14.06;100.00
5574;BME280;2563;52.242;7.956;2023-07-13T02:49:01;102800.03;;;14.11;100.00
5574;BME280;2563;52.242;7.956;2023-07-13T02:51:26;102828.50;;;14.15;100.00
5574;BME280;2563;52.242;7.956;2023-07-13T02:53:52;102845.75;;;14.22;100.00
5574;BME280;2563;52.242;7.956;2023-07-13T02:56:22;103209.31;;;14.23;100.00
5574;BME280;2563;52.242;7.956;2023-07-13T02:58:48;103225.72;;;14.26;100.00
5574;BME280;2563;52.242;7.956;2023-07-13T03:01:13;103245.63;;;14.31;100.00
5574;BME280;2563;52.242;7.956;2023-07-13T03:03:44;103259.44;;;14.39;100.00
5574;BME280;2563;52.242;7.956;2023-07-13T03:06:10;103272.44;;;14.48;100.00
5574;BME280;2563;52.242;7.956;2023-07-13T03:08:36;103301.84;;;14.50;100.00
5574;BME280;2563;52.242;7.956;2023-07-13T03:11:04;103320.84;;;14.49;100.00
5574;BME280;2563;52.242;7.956;2023-07-13T03:13:30;103324.28;;;14.42;100.00
5574;BME280;2563;52.242;7.956;2023-07-13T03:15:55;103322.53;;;14.41;100.00
5574;BME280;2563;52.242;7.956;2023-07-13T03:18:21;103338.91;;;14.32;100.00
5574;BME280;2563;52.242;7.956;2023-07-13T03:20:46;103337.19;;;14.33;100.00
5574;BME280;2563;52.242;7.956;2023-07-13T03:23:11;103352.75;;;14.36;100.00
5574;BME280;2563;52.242;7.956;2023-07-13T03:25:37;103353.56;;;14.32;100.00
5574;BME280;2563;52.242;7.956;2023-07-13T03:28:02;103352.69;;;14.25;100.00
5574;BME280;2563;52.242;7.956;2023-07-13T03:30:27;103361.28;;;14.16;100.00
5574;BME280;2563;52.242;7.956;2023-07-13T03:32:53;103360.41;;;14.13;100.00
5574;BME280;2563;52.242;7.956;2023-07-13T03:35:18;103369.91;;;14.15;100.00
5574;BME280;2563;52.242;7.956;2023-07-13T03:37:43;103381.97;;;14.12;100.00
5574;BME280;2563;52.242;7.956;2023-07-13T03:40:09;103384.53;;;14.07;100.00
5574;BME280;2563;52.242;7.956;2023-07-13T03:42:35;103402.66;;;14.10;100.00
5574;BME280;2563;52.242;7.956;2023-07-13T03:45:00;103406.16;;;14.11;100.00
5574;BME280;2563;52.242;7.956;2023-07-13T03:47:26;103416.47;;;14.06;100.00
5574;BME280;2563;52.242;7.956;2023-07-13T03:49:51;103421.69;;;14.09;100.00
5574;BME280;2563;52.242;7.956;2023-07-13T03:52:17;103427.69;;;14.05;100.00
5574;BME280;2563;52.242;7.956;2023-07-13T03:54:42;103435.44;;;14.05;100.00
5574;BME280;2563;52.242;7.956;2023-07-13T03:57:08;103441.47;;;14.01;100.00
5574;BME280;2563;52.242;7.956;2023-07-13T03:59:33;103437.16;;;14.01;100.00
5574;BME280;2563;52.242;7.956;2023-07-13T04:01:59;103444.09;;;14.07;100.00
5574;BME280;2563;52.242;7.956;2023-07-13T04:04:24;103444.13;;;14.10;100.00
5574;BME280;2563;52.242;7.956;2023-07-13T04:06:49;103456.25;;;14.13;100.00
5574;BME280;2563;52.242;7.956;2023-07-13T04:09:17;103470.97;;;14.15;100.00
5574;BME280;2563;52.242;7.956;2023-07-13T04:11:43;103470.94;;;14.17;100.00
5574;BME280;2563;52.242;7.956;2023-07-13T04:14:09;103490.00;;;14.23;100.00
5574;BME280;2563;52.242;7.956;2023-07-13T04:16:34;103504.72;;;14.29;100.00
5574;BME280;2563;52.242;7.956;2023-07-13T04:19:00;103510.81;;;14.33;100.00
5574;BME280;2563;52.242;7.956;2023-07-13T04:21:27;103540.69;;;15.05;100.00
5574;BME280;2563;52.242;7.956;2023-07-13T04:23:53;103640.63;;;15.98;100.00
5574;BME280;2563;52.242;7.956;2023-07-13T04:26:18;103722.19;;;16.42;100.00
5574;BME280;2563;52.242;7.956;2023-07-13T04:28:46;103762.94;;;16.46;100.00
5574;BME280;2563;52.242;7.956;2023-07-13T04:31:12;103765.59;;;16.69;100.00
5574;BME280;2563;52.242;7.956;2023-07-13T04:33:38;103745.63;;;16.66;100.00
5574;BME280;2563;52.242;7.956;2023-07-13T04:36:04;103715.28;;;16.64;100.00
5574;BME280;2563;52.242;7.956;2023-07-13T04:38:31;103684.97;;;16.83;100.00
5574;BME280;2563;52.242;7.956;2023-07-13T04:41:00;103592.16;;;16.49;100.00
5574;BME280;2563;52.242;7.956;2023-07-13T04:43:27;103537.56;;;16.54;100.00
5574;BME280;2563;52.242;7.956;2023-07-13T04:45:53;103482.97;;;16.57;100.00
5574;BME280;2563;52.242;7.956;2023-07-13T04:48:19;103433.53;;;16.57;100.00
5574;BME280;2563;52.242;7.956;2023-07-13T04:50:45;103361.72;;;16.13;100.00
5574;BME280;2563;52.242;7.956;2023-07-13T04:53:11;103305.47;;;15.87;100.00
5574;BME280;2563;52.242;7.956;2023-07-13T04:55:37;103263.06;;;15.81;100.00
5574;BME280;2563;52.242;7.956;2023-07-13T04:58:03;103221.53;;;15.71;100.00
5574;BME280;2563;52.242;7.956;2023-07-13T05:00:29;103199.91;;;15.71;100.00
5574;BME280;2563;52.242;7.956;2023-07-13T05:02:55;103173.94;;;15.59;100.00
5574;BME280;2563;52.242;7.956;2023-07-13T05:05:22;103153.16;;;15.59;100.00
5574;BME280;2563;52.242;7.956;2023-07-13T05:07:48;103130.66;;;15.55;100.00
5574;BME280;2563;52.242;7.956;2023-07-13T05:10:13;103132.41;;;15.59;100.00
5574;BME280;2563;52.242;7.956;2023-07-13T05:12:38;103116.81;;;15.57;100.00
5574;BME280;2563;52.242;7.956;2023-07-13T05:15:04;103114.19;;;15.60;100.00
5574;BME280;2563;52.242;7.956;2023-07-13T05:17:30;103099.50;;;15.58;100.00
5574;BME280;2563;52.242;7.956;2023-07-13T05:19:55;103080.47;;;15.52;100.00
5574;BME280;2563;52.242;7.956;2023-07-13T05:22:20;103082.19;;;15.57;100.00
5574;BME280;2563;52.242;7.956;2023-07-13T05:24:46;103080.41;;;15.68;100.00
5574;BME280;2563;52.242;7.956;2023-07-13T05:27:11;103075.25;;;15.71;100.00
5574;BME280;2563;52.242;7.956;2023-07-13T05:29:37;103090.69;;;15.95;100.00
5574;BME280;2563;52.242;7.956;2023-07-13T05:32:02;103121.28;;;16.80;100.00
5574;BME280;2563;52.242;7.956;2023-07-13T05:34:28;103127.03;;;17.14;100.00
5574;BME280;2563;52.242;7.956;2023-07-13T05:36:54;103075.38;;;16.70;100.00
5574;BME280;2563;52.242;7.956;2023-07-13T05:39:20;103029.84;;;16.26;100.00
5574;BME280;2563;52.242;7.956;2023-07-13T05:41:45;102990.22;;;15.94;100.00
5574;BME280;2563;52.242;7.956;2023-07-13T05:44:11;103003.31;;;15.84;100.00
5574;BME280;2563;52.242;7.956;2023-07-13T05:46:36;102998.06;;;15.88;100.00
5574;BME280;2563;52.242;7.956;2023-07-13T05:49:02;103034.19;;;16.24;100.00
5574;BME280;2563;52.242;7.956;2023-07-13T05:51:28;103071.75;;;16.89;100.00
5574;BME280;2563;52.242;7.956;2023-07-13T05:53:53;103134.28;;;17.62;100.00
5574;BME280;2563;52.242;7.956;2023-07-13T05:56:19;103093.31;;;17.02;100.00
5574;BME280;2563;52.242;7.956;2023-07-13T05:58:44;103019.88;;;16.72;100.00
5574;BME280;2563;52.242;7.956;2023-07-13T06:01:12;102980.09;;;16.63;100.00
5574;BME280;2563;52.242;7.956;2023-07-13T06:03:38;102951.63;;;16.49;100.00
5574;BME280;2563;52.242;7.956;2023-07-13T06:06:08;102949.91;;;16.48;100.00
5574;BME280;2563;52.242;7.956;2023-07-13T06:08:33;102937.06;;;16.35;100.00
5574;BME280;2563;52.242;7.956;2023-07-13T06:11:08;102916.22;;;16.40;100.00
5574;BME280;2563;52.242;7.956;2023-07-13T06:13:35;102921.28;;;16.49;100.00
5574;BME280;2563;52.242;7.956;2023-07-13T06:16:02;102899.75;;;16.38;100.00
5574;BME280;2563;52.242;7.956;2023-07-13T06:18:30;102896.19;;;16.47;100.00
5574;BME280;2563;52.242;7.956;2023-07-13T06:20:57;102941.97;;;17.33;100.00
5574;BME280;2563;52.242;7.956;2023-07-13T06:23:23;102967.38;;;18.28;100.00
5574;BME280;2563;52.242;7.956;2023-07-13T06:25:48;102898.56;;;18.82;100.00
5574;BME280;2563;52.242;7.956;2023-07-13T06:28:14;102812.16;;;18.95;100.00
5574;BME280;2563;52.242;7.956;2023-07-13T06:30:39;102745.53;;;19.48;100.00
5574;BME280;2563;52.242;7.956;2023-07-13T06:33:05;102680.88;;;20.17;100.00
5574;BME280;2563;52.242;7.956;2023-07-13T06:35:30;102544.88;;;20.44;100.00
5574;BME280;2563;52.242;7.956;2023-07-13T06:37:56;102349.59;;;20.43;100.00
5574;BME280;2563;52.242;7.956;2023-07-13T06:40:21;102113.78;;;20.52;100.00
5574;BME280;2563;52.242;7.956;2023-07-13T06:42:46;101898.22;;;20.56;100.00
5574;BME280;2563;52.242;7.956;2023-07-13T06:45:12;101772.19;;;20.85;100.00
5574;BME280;2563;52.242;7.956;2023-07-13T06:47:37;101702.38;;;21.55;100.00
5574;BME280;2563;52.242;7.956;2023-07-13T06:50:02;101560.28;;;21.16;100.00
5574;BME280;2563;52.242;7.956;2023-07-13T06:52:28;101471.31;;;21.64;100.00
5574;BME280;2563;52.242;7.956;2023-07-13T06:54:53;101386.38;;;22.13;100.00
5574;BME280;2563;52.242;7.956;2023-07-13T06:57:19;101265.28;;;21.92;100.00
5574;BME280;2563;52.242;7.956;2023-07-13T06:59:44;101136.78;;;21.64;100.00
5574;BME280;2563;52.242;7.956;2023-07-13T07:02:10;101113.84;;;22.09;100.00
5574;BME280;2563;52.242;7.956;2023-07-13T07:04:36;101014.22;;;22.37;100.00
5574;BME280;2563;52.242;7.956;2023-07-13T07:07:02;100929.34;;;22.38;100.00
5574;BME280;2563;52.242;7.956;2023-07-13T07:09:28;100871.09;;;22.33;100.00
5574;BME280;2563;52.242;7.956;2023-07-13T07:11:55;100840.03;;;22.52;100.00
5574;BME280;2563;52.242;7.956;2023-07-13T07:14:20;100804.69;;;22.82;100.00
5574;BME280;2563;52.242;7.956;2023-07-13T07:16:46;100725.56;;;22.75;100.00
5574;BME280;2563;52.242;7.956;2023-07-13T07:19:11;100669.34;;;22.66;100.00
5574;BME280;2563;52.242;7.956;2023-07-13T07:21:36;100665.22;;;22.86;100.00
5574;BME280;2563;52.242;7.956;2023-07-13T07:24:02;100648.69;;;23.32;100.00
5574;BME280;2563;52.242;7.956;2023-07-13T07:26:28;100605.09;;;24.09;100.00
5574;BME280;2563;52.242;7.956;2023-07-13T07:28:54;100505.47;;;23.72;100.00
5574;BME280;2563;52.242;7.956;2023-07-13T07:31:19;100396.28;;;23.79;100.00
5574;BME280;2563;52.242;7.956;2023-07-13T07:33:45;100344.59;;;23.89;100.00
5574;BME280;2563;52.242;7.956;2023-07-13T07:36:10;100332.47;;;24.19;100.00
5574;BME280;2563;52.242;7.956;2023-07-13T07:38:37;100271.97;;;23.88;100.00
5574;BME280;2563;52.242;7.956;2023-07-13T07:41:05;100261.19;;;23.49;100.00
5574;BME280;2563;52.242;7.956;2023-07-13T07:43:30;100227.09;;;22.62;100.00
5574;BME280;2563;52.242;7.956;2023-07-13T07:45:57;100256.53;;;22.77;100.00
5574;BME280;2563;52.242;7.956;2023-07-13T07:48:22;100262.81;;;22.86;100.00
5574;BME280;2563;52.242;7.956;2023-07-13T07:50:48;100265.97;;;22.01;100.00
5574;BME280;2563;52.242;7.956;2023-07-13T07:53:13;100317.84;;;22.76;100.00
5574;BME280;2563;52.242;7.956;2023-07-13T07:55:39;100298.09;;;23.48;100.00
5574;BME280;2563;52.242;7.956;2023-07-13T07:58:05;100260.09;;;23.73;100.00
5574;BME280;2563;52.242;7.956;2023-07-13T08:00:30;100216.25;;;23.52;100.00
5574;BME280;2563;52.242;7.956;2023-07-13T08:02:58;100177.25;;;23.99;100.00
5574;BME280;2563;52.242;7.956;2023-07-13T08:05:23;100105.94;;;23.93;100.00
5574;BME280;2563;52.242;7.956;2023-07-13T08:07:49;100095.09;;;24.95;100.00
5574;BME280;2563;52.242;7.956;2023-07-13T08:10:15;99993.94;;;24.88;100.00
5574;BME280;2563;52.242;7.956;2023-07-13T08:12:41;99946.13;;;24.06;100.00
5574;BME280;2563;52.242;7.956;2023-07-13T08:15:10;99937.69;;;24.22;100.00
5574;BME280;2563;52.242;7.956;2023-07-13T08:17:35;99906.47;;;25.31;100.00
5574;BME280;2563;52.242;7.956;2023-07-13T08:20:01;99842.06;;;25.16;100.00
5574;BME280;2563;52.242;7.956;2023-07-13T08:22:27;99800.47;;;24.36;100.00
5574;BME280;2563;52.242;7.956;2023-07-13T08:24:52;99795.59;;;24.97;100.00
5574;BME280;2563;52.242;7.956;2023-07-13T08:27:22;99747.25;;;25.78;100.00
5574;BME280;2563;52.242;7.956;2023-07-13T08:29:48;99684.66;;;26.06;100.00
5574;BME280;2563;52.242;7.956;2023-07-13T08:32:14;99658.28;;;25.80;100.00
5574;BME280;2563;52.242;7.956;2023-07-13T08:34:39;99632.53;;;25.74;100.00
5574;BME280;2563;52.242;7.956;2023-07-13T08:37:05;99655.16;;;25.06;100.00
5574;BME280;2563;52.242;7.956;2023-07-13T08:39:31;99651.41;;;24.91;100.00
5574;BME280;2563;52.242;7.956;2023-07-13T08:42:01;99680.88;;;23.46;100.00
5574;BME280;2563;52.242;7.956;2023-07-13T08:45:03;99658.63;;;23.97;100.00
5574;BME280;2563;52.242;7.956;2023-07-13T08:47:33;99627.88;;;24.89;100.00
5574;BME280;2563;52.242;7.956;2023-07-13T08:50:00;99634.94;;;25.33;100.00
5574;BME280;2563;52.242;7.956;2023-07-13T08:52:34;99634.09;;;25.84;100.00
5574;BME280;2563;52.242;7.956;2023-07-13T08:55:09;99678.34;;;25.20;100.00
5574;BME280;2563;52.242;7.956;2023-07-13T08:57:38;99677.97;;;26.28;100.00
5574;BME280;2563;52.242;7.956;2023-07-13T09:00:07;99750.25;;;26.09;100.00
5574;BME280;2563;52.242;7.956;2023-07-13T09:02:42;99843.63;;;24.53;100.00
5574;BME280;2563;52.242;7.956;2023-07-13T09:05:14;99779.53;;;24.54;100.00
5574;BME280;2563;52.242;7.956;2023-07-13T09:10:45;99807.81;;;24.98;100.00
5574;BME280;2563;52.242;7.956;2023-07-13T09:13:35;99774.59;;;26.29;100.00
5574;BME280;2563;52.242;7.956;2023-07-13T09:16:03;99868.34;;;26.15;100.00
5574;BME280;2563;52.242;7.956;2023-07-13T09:18:35;99912.09;;;26.70;100.00
5574;BME280;2563;52.242;7.956;2023-07-13T09:21:24;99999.50;;;27.19;100.00
5574;BME280;2563;52.242;7.956;2023-07-13T09:26:40;100225.31;;;26.16;100.00
5574;BME280;2563;52.242;7.956;2023-07-13T09:29:23;100222.75;;;26.51;100.00
5574;BME280;2563;52.242;7.956;2023-07-13T09:31:54;100278.59;;;25.04;100.00
5574;BME280;2563;52.242;7.956;2023-07-13T09:34:20;100246.44;;;25.00;100.00
5574;BME280;2563;52.242;7.956;2023-07-13T09:36:46;100255.75;;;24.45;100.00
5574;BME280;2563;52.242;7.956;2023-07-13T09:44:16;100224.47;;;23.38;100.00
5574;BME280;2563;52.242;7.956;2023-07-13T09:47:00;100169.94;;;24.13;100.00
5574;BME280;2563;52.242;7.956;2023-07-13T09:49:29;100149.94;;;25.38;100.00
5574;BME280;2563;52.242;7.956;2023-07-13T09:52:03;100247.00;;;25.14;100.00
5574;BME280;2563;52.242;7.956;2023-07-13T09:54:29;100264.72;;;24.82;100.00
5574;BME280;2563;52.242;7.956;2023-07-13T09:56:58;100263.31;;;25.76;100.00
5574;BME280;2563;52.242;7.956;2023-07-13T09:59:29;100269.75;;;26.93;100.00
5574;BME280;2563;52.242;7.956;2023-07-13T10:01:55;100397.38;;;25.71;100.00
5574;BME280;2563;52.242;7.956;2023-07-13T10:04:28;100402.09;;;26.16;100.00
5574;BME280;2563;52.242;7.956;2023-07-13T10:07:05;100457.09;;;24.91;100.00
5574;BME280;2563;52.242;7.956;2023-07-13T10:09:31;100479.66;;;23.88;100.00
5574;BME280;2563;52.242;7.956;2023-07-13T10:11:57;100450.38;;;23.27;100.00
5574;BME280;2563;52.242;7.956;2023-07-13T10:14:23;100386.63;;;24.22;100.00
5574;BME280;2563;52.242;7.956;2023-07-13T10:16:53;100344.75;;;24.70;100.00
5574;BME280;2563;52.242;7.956;2023-07-13T10:19:25;100346.47;;;25.21;100.00
5574;BME280;2563;52.242;7.956;2023-07-13T10:21:57;100351.44;;;26.49;100.00
5574;BME280;2563;52.242;7.956;2023-07-13T10:24:26;100475.06;;;25.16;100.00
5574;BME280;2563;52.242;7.956;2023-07-13T10:27:03;100456.03;;;25.03;100.00
5574;BME280;2563;52.242;7.956;2023-07-13T10:29:36;100484.91;;;24.83;100.00
5574;BME280;2563;52.242;7.956;2023-07-13T10:32:08;100498.47;;;24.58;100.00
5574;BME280;2563;52.242;7.956;2023-07-13T10:34:34;100501.69;;;24.08;100.00
5574;BME280;2563;52.242;7.956;2023-07-13T10:37:00;100517.00;;;23.14;100.00
5574;BME280;2563;52.242;7.956;2023-07-13T10:39:27;100485.84;;;22.99;100.00
5574;BME280;2563;52.242;7.956;2023-07-13T10:41:57;100428.16;;;22.86;100.00
5574;BME280;2563;52.242;7.956;2023-07-13T10:44:29;100368.56;;;22.99;100.00
5574;BME280;2563;52.242;7.956;2023-07-13T10:47:01;100317.47;;;22.92;100.00
5574;BME280;2563;52.242;7.956;2023-07-13T10:49:30;100191.25;;;25.38;100.00
5574;BME280;2563;52.242;7.956;2023-07-13T10:51:56;100333.91;;;25.04;100.00
5574;BME280;2563;52.242;7.956;2023-07-13T10:54:27;100431.34;;;24.42;100.00
5574;BME280;2563;52.242;7.956;2023-07-13T10:57:21;100458.44;;;24.54;100.00
5574;BME280;2563;52.242;7.956;2023-07-13T10:59:49;100474.19;;;24.33;100.00
5574;BME280;2563;52.242;7.956;2023-07-13T11:02:34;100498.41;;;24.90;100.00
5574;BME280;2563;52.242;7.956;2023-07-13T11:05:17;100526.88;;;24.54;100.00
5574;BME280;2563;52.242;7.956;2023-07-13T11:08:12;100515.06;;;25.72;100.00
5574;BME280;2563;52.242;7.956;2023-07-13T11:13:35;100590.66;;;26.31;100.00
5574;BME280;2563;52.242;7.956;2023-07-13T11:16:34;100576.19;;;26.93;100.00
5574;BME280;2563;52.242;7.956;2023-07-13T11:21:29;100659.50;;;26.78;100.00
5574;BME280;2563;52.242;7.956;2023-07-13T11:24:04;100659.63;;;27.25;100.00
5574;BME280;2563;52.242;7.956;2023-07-13T11:31:56;100676.44;;;27.05;100.00
5574;BME280;2563;52.242;7.956;2023-07-13T11:34:42;100683.97;;;27.66;100.00
5574;BME280;2563;52.242;7.956;2023-07-13T11:37:12;100695.97;;;27.51;100.00
5574;BME280;2563;52.242;7.956;2023-07-13T11:39:42;100720.22;;;27.36;100.00
5574;BME280;2563;52.242;7.956;2023-07-13T11:42:13;100727.41;;;27.73;100.00
5574;BME280;2563;52.242;7.956;2023-07-13T11:44:46;100730.78;;;27.46;100.00
5574;BME280;2563;52.242;7.956;2023-07-13T11:47:22;100723.47;;;26.91;100.00
5574;BME280;2563;52.242;7.956;2023-07-13T11:49:50;100703.84;;;27.23;100.00
5574;BME280;2563;52.242;7.956;2023-07-13T11:52:20;100698.41;;;28.65;100.00
5574;BME280;2563;52.242;7.956;2023-07-13T11:54:55;100730.56;;;27.77;100.00
5574;BME280;2563;52.242;7.956;2023-07-13T11:59:54;100773.16;;;26.17;100.00
5574;BME280;2563;52.242;7.956;2023-07-13T12:02:30;100761.50;;;25.67;100.00
5574;BME280;2563;52.242;7.956;2023-07-13T12:04:57;100726.38;;;26.88;100.00
5574;BME280;2563;52.242;7.956;2023-07-13T12:07:23;100750.81;;;25.90;100.00
5574;BME280;2563;52.242;7.956;2023-07-13T12:09:49;100731.88;;;25.85;100.00
5574;BME280;2563;52.242;7.956;2023-07-13T12:12:28;100732.59;;;26.08;100.00
5574;BME280;2563;52.242;7.956;2023-07-13T12:14:54;100751.13;;;25.55;100.00
5574;BME280;2563;52.242;7.956;2023-07-13T12:17:24;100739.75;;;25.54;100.00
5574;BME280;2563;52.242;7.956;2023-07-13T12:19:52;100728.34;;;25.86;100.00
5574;BME280;2563;52.242;7.956;2023-07-13T12:22:19;100716.22;;;26.24;100.00
5574;BME280;2563;52.242;7.956;2023-07-13T12:24:46;100747.16;;;25.39;100.00
5574;BME280;2563;52.242;7.956;2023-07-13T12:27:23;100755.50;;;24.48;100.00
5574;BME280;2563;52.242;7.956;2023-07-13T12:30:31;100740.78;;;24.00;100.00
5574;BME280;2563;52.242;7.956;2023-07-13T12:33:08;100726.31;;;23.94;100.00
5574;BME280;2563;52.242;7.956;2023-07-13T12:35:43;100731.22;;;23.41;100.00
5574;BME280;2563;52.242;7.956;2023-07-13T12:38:11;100710.41;;;23.27;100.00
5574;BME280;2563;52.242;7.956;2023-07-13T12:40:37;100700.06;;;22.77;100.00
5574;BME280;2563;52.242;7.956;2023-07-13T12:43:04;100689.38;;;21.55;100.00
5574;BME280;2563;52.242;7.956;2023-07-13T12:45:32;100631.31;;;20.29;100.00
5574;BME280;2563;52.242;7.956;2023-07-13T12:48:10;100462.72;;;19.40;100.00
5574;BME280;2563;52.242;7.956;2023-07-13T12:50:41;100165.44;;;18.83;100.00
5574;BME280;2563;52.242;7.956;2023-07-13T12:53:13;99901.97;;;18.59;100.00
5574;BME280;2563;52.242;7.956;2023-07-13T12:55:50;99712.41;;;18.61;100.00
5574;BME280;2563;52.242;7.956;2023-07-13T12:58:25;99604.84;;;18.83;100.00
5574;BME280;2563;52.242;7.956;2023-07-13T13:00:54;99526.44;;;19.31;100.00
5574;BME280;2563;52.242;7.956;2023-07-13T13:05:48;99404.53;;;20.51;100.00
5574;BME280;2563;52.242;7.956;2023-07-13T13:08:14;99372.00;;;21.36;100.00
5574;BME280;2563;52.242;7.956;2023-07-13T13:10:40;99370.63;;;22.19;100.00
5574;BME280;2563;52.242;7.956;2023-07-13T13:13:05;99393.88;;;22.61;100.00
5574;BME280;2563;52.242;7.956;2023-07-13T13:15:31;99419.66;;;22.76;100.00
5574;BME280;2563;52.242;7.956;2023-07-13T13:17:58;99448.78;;;23.20;100.00
5574;BME280;2563;52.242;7.956;2023-07-13T13:20:24;99519.84;;;23.46;100.00
5574;BME280;2563;52.242;7.956;2023-07-13T13:22:51;99580.28;;;23.36;100.00
5574;BME280;2563;52.242;7.956;2023-07-13T13:25:18;99635.75;;;23.23;100.00
5574;BME280;2563;52.242;7.956;2023-07-13T13:27:44;99664.47;;;23.44;100.00
5574;BME280;2563;52.242;7.956;2023-07-13T13:30:15;99659.38;;;24.63;100.00
5574;BME280;2563;52.242;7.956;2023-07-13T13:32:45;99735.19;;;24.77;100.00